Kumler, Illinois
Current Conditions -  °F | °C
As of 4:30 AM on Saturday 22 Nov 2014 (Local Time) from KTIP Reporting Station
Overcast Overcast  
Wind Chill: 31°   Ceiling: 4700
Heat Index: 38°   Visibility: 10mi
Dew Point: 32°   Wind: 10mph
Humidity: 80%   Direction: 190°S
Pressure: 30.13"   Gusts: NA
Location:  40.3398°N, 88.5173°W
Report Text: KTIP 221030Z AUTO 19009KT 10SM BKN047 BKN050 OVC080 03/00 A3013 RMK AO2 T00330001
Loading
Personal Weather Stations






























Interactive Weather Map New forecast layout! Learn more

10-Day Weather Forecast

Advertisements
Track Severe Weather on mobile